createdAt,value
2023-02-14T00:00:59.234Z,8.93
2023-02-14T00:04:03.034Z,8.45
2023-02-14T00:07:06.114Z,10.00
2023-02-14T00:10:11.320Z,9.50
2023-02-14T00:13:14.054Z,9.38
2023-02-14T00:16:17.296Z,8.93
2023-02-14T00:19:21.823Z,9.40
2023-02-14T00:22:25.900Z,8.68
2023-02-14T00:25:29.807Z,9.52
2023-02-14T00:28:32.620Z,9.18
2023-02-14T00:31:36.027Z,9.00
2023-02-14T00:34:40.837Z,8.77
2023-02-14T00:37:47.377Z,10.07
2023-02-14T00:40:51.333Z,8.73
2023-02-14T00:43:54.219Z,9.40
2023-02-14T00:46:57.008Z,9.15
2023-02-14T00:50:04.578Z,10.38
2023-02-14T00:53:08.729Z,9.48
2023-02-14T00:56:11.878Z,8.88
2023-02-14T00:59:15.085Z,9.65
2023-02-14T01:02:18.847Z,9.40
2023-02-14T01:05:22.765Z,10.10
2023-02-14T01:08:26.179Z,9.00
2023-02-14T01:11:30.413Z,8.65
2023-02-14T01:14:33.279Z,9.65
2023-02-14T01:17:36.533Z,9.82
2023-02-14T01:20:39.971Z,9.03
2023-02-14T01:23:44.601Z,7.80
2023-02-14T01:26:47.319Z,8.10
2023-02-14T01:29:50.452Z,8.98
2023-02-14T01:32:54.398Z,8.82
2023-02-14T01:35:58.395Z,9.80
2023-02-14T01:39:04.636Z,9.15
2023-02-14T01:42:11.583Z,9.73
2023-02-14T01:45:19.691Z,9.25
2023-02-14T01:48:23.900Z,10.27
2023-02-14T01:51:26.727Z,10.10
2023-02-14T01:54:32.894Z,9.83
2023-02-14T01:57:45.824Z,10.00
2023-02-14T02:00:59.320Z,9.57
2023-02-14T02:04:09.692Z,9.65
2023-02-14T02:07:19.541Z,9.95
2023-02-14T02:10:23.113Z,10.25
2023-02-14T02:13:26.263Z,10.02
2023-02-14T02:16:43.406Z,9.67
2023-02-14T02:20:04.496Z,12.80
2023-02-14T02:23:42.167Z,12.32
2023-02-14T02:26:50.892Z,11.52
2023-02-14T02:30:30.156Z,10.70
2023-02-14T02:34:06.650Z,9.75
2023-02-14T02:37:25.032Z,10.48
2023-02-14T02:40:39.993Z,11.07
2023-02-14T02:44:11.194Z,10.40
2023-02-14T02:47:32.722Z,10.30
2023-02-14T02:51:07.126Z,10.07
2023-02-14T02:54:20.836Z,10.87
2023-02-14T02:57:32.860Z,9.80
2023-02-14T03:00:36.485Z,9.93
2023-02-14T03:04:02.786Z,10.32
2023-02-14T03:07:26.327Z,10.20
2023-02-14T03:10:35.285Z,10.48
2023-02-14T03:13:56.632Z,9.90
2023-02-14T03:17:33.479Z,9.67
2023-02-14T03:20:55.178Z,9.95
2023-02-14T03:24:23.378Z,9.63
2023-02-14T03:27:32.705Z,8.77
2023-02-14T03:30:50.856Z,9.90
2023-02-14T03:34:01.682Z,10.48
2023-02-14T03:37:14.438Z,10.18
2023-02-14T03:40:26.005Z,10.40
2023-02-14T03:43:36.695Z,10.68
2023-02-14T03:46:45.458Z,10.73
2023-02-14T03:49:54.051Z,10.85
2023-02-14T03:52:59.677Z,9.43
2023-02-14T03:56:23.956Z,10.70
2023-02-14T03:59:28.796Z,11.05
2023-02-14T04:02:41.261Z,10.75
2023-02-14T04:05:52.587Z,10.50
2023-02-14T04:08:57.443Z,10.68
2023-02-14T04:12:00.197Z,10.73
2023-02-14T04:15:04.306Z,10.67
2023-02-14T04:18:27.187Z,10.25
2023-02-14T04:21:30.620Z,9.60
2023-02-14T04:24:33.776Z,10.88
2023-02-14T04:27:36.488Z,10.32
2023-02-14T04:30:40.357Z,10.55
2023-02-14T04:33:49.456Z,9.85
2023-02-14T04:36:57.622Z,11.13
2023-02-14T04:40:00.911Z,11.45
2023-02-14T04:43:05.174Z,12.20
2023-02-14T04:46:12.381Z,12.30
2023-02-14T04:49:18.359Z,12.60
2023-02-14T04:52:21.140Z,14.35
2023-02-14T04:55:25.224Z,14.80
2023-02-14T04:58:28.314Z,15.63
2023-02-14T05:01:32.555Z,15.73
2023-02-14T05:04:35.331Z,15.07
2023-02-14T05:07:38.814Z,16.43
2023-02-14T05:10:42.456Z,16.62
2023-02-14T05:13:47.459Z,15.02
2023-02-14T05:16:51.449Z,14.05
2023-02-14T05:19:57.590Z,11.85
2023-02-14T05:23:17.282Z,12.77
2023-02-14T05:26:22.345Z,12.82
2023-02-14T05:29:27.838Z,12.43
2023-02-14T05:32:31.232Z,13.27
2023-02-14T05:35:34.162Z,12.32
2023-02-14T05:38:48.755Z,12.07
2023-02-14T05:41:59.408Z,12.18
2023-02-14T05:45:04.073Z,12.52
2023-02-14T05:48:08.364Z,12.82
2023-02-14T05:51:11.990Z,12.45
2023-02-14T05:54:17.376Z,12.48
2023-02-14T05:57:21.218Z,14.63
2023-02-14T06:00:24.547Z,13.07
2023-02-14T06:03:28.976Z,14.52
2023-02-14T06:06:34.643Z,14.38
2023-02-14T06:09:39.673Z,15.57
2023-02-14T06:12:50.212Z,15.38
2023-02-14T06:15:55.378Z,17.42
2023-02-14T06:19:04.432Z,17.45
2023-02-14T06:22:08.512Z,16.37
2023-02-14T06:25:11.898Z,17.90
2023-02-14T06:28:17.175Z,16.75
2023-02-14T06:31:22.743Z,18.03
2023-02-14T06:34:25.963Z,16.62
2023-02-14T06:37:33.145Z,17.35
2023-02-14T06:40:37.798Z,17.73
2023-02-14T06:43:40.668Z,16.13
2023-02-14T06:46:44.180Z,17.48
2023-02-14T06:49:47.483Z,18.08
2023-02-14T06:52:51.622Z,18.98
2023-02-14T06:55:56.707Z,16.40
2023-02-14T06:59:05.009Z,16.97
2023-02-14T07:02:11.621Z,16.40
2023-02-14T07:05:19.271Z,18.17
2023-02-14T07:08:26.954Z,19.12
2023-02-14T07:11:32.548Z,23.62
2023-02-14T07:14:37.464Z,20.83
2023-02-14T07:17:48.882Z,50.80
2023-02-14T07:20:57.303Z,46.58
2023-02-14T07:24:08.772Z,37.55
2023-02-14T07:27:16.278Z,41.08
2023-02-14T07:30:23.310Z,47.50
2023-02-14T07:33:28.255Z,32.30
2023-02-14T07:36:32.195Z,32.50
2023-02-14T07:39:36.557Z,28.92
2023-02-14T07:42:40.774Z,25.25
2023-02-14T07:45:47.333Z,21.77
2023-02-14T07:48:52.086Z,20.12
2023-02-14T07:51:58.448Z,21.25
2023-02-14T07:55:05.213Z,19.95
2023-02-14T07:58:09.410Z,19.10
2023-02-14T08:01:13.267Z,17.57
2023-02-14T08:04:17.711Z,17.00
2023-02-14T08:07:22.141Z,16.15
2023-02-14T08:10:25.929Z,13.70
2023-02-14T08:13:30.249Z,15.65
2023-02-14T08:16:35.315Z,13.70
2023-02-14T08:19:46.107Z,13.25
2023-02-14T08:22:53.419Z,14.18
2023-02-14T08:25:57.158Z,13.60
2023-02-14T08:29:02.166Z,13.57
2023-02-14T08:32:06.811Z,12.13
2023-02-14T08:35:23.797Z,13.10
2023-02-14T08:38:30.982Z,13.48
2023-02-14T08:41:38.470Z,14.02
2023-02-14T08:44:42.698Z,12.90
2023-02-14T08:47:47.183Z,12.27
2023-02-14T08:50:54.766Z,13.60
2023-02-14T08:53:58.401Z,13.57
2023-02-14T08:57:03.540Z,13.40
2023-02-14T09:00:09.127Z,13.90
2023-02-14T09:03:12.255Z,13.57
2023-02-14T09:06:17.701Z,13.10
2023-02-14T09:09:25.456Z,11.85
2023-02-14T09:12:28.730Z,12.10
2023-02-14T09:15:31.742Z,10.57
2023-02-14T09:18:35.766Z,11.53
2023-02-14T09:21:40.926Z,12.35
2023-02-14T09:24:45.429Z,12.77
2023-02-14T09:27:49.648Z,12.07
2023-02-14T09:30:55.646Z,12.25
2023-02-14T09:33:58.976Z,11.60
2023-02-14T09:37:21.064Z,11.85
2023-02-14T09:40:28.434Z,12.20
2023-02-14T09:43:48.899Z,11.00
2023-02-14T09:47:00.865Z,11.32
2023-02-14T09:50:07.767Z,11.23
2023-02-14T09:53:30.420Z,9.35
2023-02-14T09:56:52.229Z,11.75
2023-02-14T10:00:33.930Z,10.88
2023-02-14T10:03:52.688Z,11.15
2023-02-14T10:07:12.244Z,11.43
2023-02-14T10:10:26.224Z,11.00
2023-02-14T10:13:59.375Z,9.73
2023-02-14T10:17:09.242Z,10.75
2023-02-14T10:20:37.986Z,9.45
2023-02-14T10:23:49.498Z,9.87
2023-02-14T10:27:11.678Z,11.18
2023-02-14T10:30:21.954Z,10.75
2023-02-14T10:33:32.447Z,9.95
2023-02-14T10:36:58.376Z,10.27
2023-02-14T10:40:43.434Z,10.97
2023-02-14T10:43:56.246Z,10.13
2023-02-14T10:47:21.822Z,10.25
2023-02-14T10:50:55.157Z,9.23
2023-02-14T10:54:26.046Z,9.80
2023-02-14T10:57:36.847Z,9.20
2023-02-14T11:01:03.711Z,7.35
2023-02-14T11:04:11.684Z,9.02
2023-02-14T11:07:19.591Z,8.43
2023-02-14T11:10:30.501Z,10.25
2023-02-14T11:13:40.309Z,8.40
2023-02-14T11:16:53.213Z,8.80
2023-02-14T11:20:02.355Z,8.30
2023-02-14T11:23:24.962Z,9.27
2023-02-14T11:26:35.316Z,8.65
2023-02-14T11:29:41.990Z,7.67
2023-02-14T11:32:56.162Z,8.70
2023-02-14T11:36:01.354Z,8.15
2023-02-14T11:39:33.612Z,7.32
2023-02-14T11:42:42.815Z,8.38
2023-02-14T11:46:05.982Z,8.20
2023-02-14T11:49:28.691Z,8.50
2023-02-14T11:52:39.515Z,11.93
2023-02-14T11:55:43.438Z,8.88
2023-02-14T11:58:50.655Z,8.35
2023-02-14T12:01:55.238Z,8.23
2023-02-14T12:05:21.234Z,7.60
2023-02-14T12:08:31.937Z,8.77
2023-02-14T12:11:36.371Z,8.18
2023-02-14T12:14:43.904Z,9.05
2023-02-14T12:17:54.091Z,7.77
2023-02-14T12:21:32.514Z,7.62
2023-02-14T12:24:49.226Z,7.70
2023-02-14T12:28:04.415Z,8.57
2023-02-14T12:31:17.238Z,9.90
2023-02-14T12:34:20.764Z,8.10
2023-02-14T12:38:02.705Z,7.95
2023-02-14T12:41:39.238Z,8.80
2023-02-14T12:45:08.710Z,6.90
2023-02-14T12:48:24.196Z,7.05
2023-02-14T12:51:31.334Z,6.53
2023-02-14T12:54:49.515Z,6.65
2023-02-14T12:58:15.481Z,7.78
2023-02-14T13:01:40.608Z,6.80
2023-02-14T13:05:17.705Z,6.40
2023-02-14T13:08:34.188Z,6.60
2023-02-14T13:11:50.076Z,6.37
2023-02-14T13:15:33.629Z,7.00
2023-02-14T13:18:55.407Z,6.53
2023-02-14T13:22:05.150Z,7.22
2023-02-14T13:25:34.024Z,7.33
2023-02-14T13:28:47.120Z,6.82
2023-02-14T13:31:57.480Z,7.80
2023-02-14T13:35:04.438Z,6.93
2023-02-14T13:38:17.175Z,7.78
2023-02-14T13:41:22.540Z,6.77
2023-02-14T13:44:44.075Z,6.87
2023-02-14T13:47:53.156Z,7.50
2023-02-14T13:51:08.695Z,7.45
2023-02-14T13:54:48.639Z,8.38
2023-02-14T13:58:03.446Z,8.60
2023-02-14T14:01:43.202Z,8.98
2023-02-14T14:04:58.172Z,10.18
2023-02-14T14:08:25.469Z,8.57
2023-02-14T14:11:48.121Z,8.02
2023-02-14T14:15:06.550Z,8.33
2023-02-14T14:18:15.714Z,8.10
2023-02-14T14:21:45.145Z,8.38
2023-02-14T14:24:59.585Z,10.20
2023-02-14T14:28:21.152Z,10.15
2023-02-14T14:31:28.866Z,12.30
2023-02-14T14:34:36.412Z,9.50
2023-02-14T14:37:55.078Z,12.57
2023-02-14T14:41:01.316Z,10.60
2023-02-14T14:44:06.986Z,14.35
2023-02-14T14:47:25.160Z,10.47
2023-02-14T14:50:33.918Z,11.10
2023-02-14T14:54:12.887Z,11.70
2023-02-14T14:57:19.381Z,9.23
2023-02-14T15:00:31.292Z,9.88
2023-02-14T15:03:36.553Z,12.13
2023-02-14T15:06:48.829Z,13.10
2023-02-14T15:09:55.339Z,11.05
2023-02-14T15:13:30.076Z,11.23
2023-02-14T15:16:51.216Z,9.75
2023-02-14T15:20:04.389Z,9.17
2023-02-14T15:23:29.277Z,9.02
2023-02-14T15:26:36.308Z,10.00
2023-02-14T15:29:49.319Z,10.15
2023-02-14T15:33:15.165Z,10.10
2023-02-14T15:36:27.954Z,9.77
2023-02-14T15:39:38.171Z,10.48
2023-02-14T15:42:46.174Z,9.63
2023-02-14T15:45:57.933Z,10.13
2023-02-14T15:49:16.251Z,11.95
2023-02-14T15:52:21.974Z,17.33
2023-02-14T15:55:44.608Z,32.47
2023-02-14T15:59:03.200Z,30.05
2023-02-14T16:02:15.666Z,20.67
2023-02-14T16:05:31.268Z,18.65
2023-02-14T16:08:46.751Z,15.03
2023-02-14T16:11:56.310Z,18.33
2023-02-14T16:15:07.213Z,17.50
2023-02-14T16:18:50.099Z,19.35
2023-02-14T16:21:58.471Z,18.02
2023-02-14T16:25:08.145Z,17.87
2023-02-14T16:28:23.560Z,16.20
2023-02-14T16:31:31.533Z,16.20
2023-02-14T16:34:43.167Z,16.05
2023-02-14T16:38:02.056Z,15.35
2023-02-14T16:41:16.248Z,14.57
2023-02-14T16:44:28.179Z,14.05
2023-02-14T16:47:32.883Z,13.93
2023-02-14T16:50:41.157Z,14.98
2023-02-14T16:54:00.096Z,15.88
2023-02-14T16:57:30.135Z,15.63
2023-02-14T17:00:48.363Z,15.32
2023-02-14T17:04:00.449Z,13.68
2023-02-14T17:07:11.200Z,13.20
2023-02-14T17:10:23.175Z,12.60
2023-02-14T17:13:41.239Z,12.37
2023-02-14T17:16:52.619Z,13.35
2023-02-14T17:19:58.486Z,15.15
2023-02-14T17:23:05.490Z,15.50
2023-02-14T17:26:16.146Z,14.82
2023-02-14T17:29:28.059Z,14.67
2023-02-14T17:32:43.255Z,14.70
2023-02-14T17:35:52.251Z,15.98
2023-02-14T17:39:04.176Z,14.35
2023-02-14T17:42:14.639Z,16.17
2023-02-14T17:45:25.400Z,16.17
2023-02-14T17:48:33.398Z,17.05
2023-02-14T17:51:40.191Z,18.37
2023-02-14T17:54:48.179Z,16.98
2023-02-14T17:58:09.635Z,17.27
2023-02-14T18:01:26.194Z,17.20
2023-02-14T18:04:40.773Z,17.35
2023-02-14T18:07:46.040Z,17.30
2023-02-14T18:10:51.228Z,17.95
2023-02-14T18:14:05.187Z,17.25
2023-02-14T18:17:15.367Z,18.50
2023-02-14T18:20:23.431Z,18.87
2023-02-14T18:23:37.637Z,18.48
2023-02-14T18:27:05.250Z,17.58
2023-02-14T18:30:15.171Z,19.00
2023-02-14T18:33:29.612Z,18.13
2023-02-14T18:36:40.520Z,21.10
2023-02-14T18:39:49.331Z,22.30
2023-02-14T18:42:57.508Z,22.13
2023-02-14T18:46:18.667Z,19.25
2023-02-14T18:49:32.060Z,21.37
2023-02-14T18:52:44.584Z,18.85
2023-02-14T18:55:55.135Z,19.42
2023-02-14T18:59:15.093Z,20.00
2023-02-14T19:02:28.181Z,22.10
2023-02-14T19:05:41.199Z,19.47
2023-02-14T19:08:53.153Z,20.60
2023-02-14T19:12:00.163Z,19.45
2023-02-14T19:15:10.104Z,19.37
2023-02-14T19:18:24.154Z,20.37
2023-02-14T19:21:32.233Z,19.00
2023-02-14T19:24:45.437Z,20.40
2023-02-14T19:28:00.158Z,21.58
2023-02-14T19:31:11.196Z,21.98
2023-02-14T19:34:23.286Z,21.85
2023-02-14T19:37:32.093Z,20.97
2023-02-14T19:40:52.372Z,22.45
2023-02-14T19:44:01.294Z,22.65
2023-02-14T19:47:25.317Z,21.27
2023-02-14T19:50:33.176Z,22.07
2023-02-14T19:53:41.160Z,20.95
2023-02-14T19:56:56.147Z,20.85
2023-02-14T20:00:03.214Z,21.17
2023-02-14T20:03:25.313Z,21.57
2023-02-14T20:06:37.196Z,20.98
2023-02-14T20:09:43.127Z,21.08
2023-02-14T20:12:59.177Z,20.67
2023-02-14T20:16:04.301Z,20.07
2023-02-14T20:19:18.161Z,20.95
2023-02-14T20:22:25.501Z,20.35
2023-02-14T20:25:39.067Z,19.90
2023-02-14T20:28:49.024Z,20.55
2023-02-14T20:32:04.132Z,20.90
2023-02-14T20:35:16.365Z,20.00
2023-02-14T20:38:25.174Z,19.80
2023-02-14T20:41:31.078Z,19.63
2023-02-14T20:44:48.048Z,19.85
2023-02-14T20:47:53.874Z,18.65
2023-02-14T20:51:09.357Z,20.02
2023-02-14T20:54:13.597Z,20.23
2023-02-14T20:57:22.157Z,18.15
2023-02-14T21:00:30.146Z,19.27
2023-02-14T21:03:44.244Z,19.55
2023-02-14T21:06:56.034Z,19.52
2023-02-14T21:10:03.850Z,20.58
2023-02-14T21:13:12.546Z,20.33
2023-02-14T21:16:19.351Z,19.27
2023-02-14T21:19:28.584Z,20.07
2023-02-14T21:22:32.746Z,20.40
2023-02-14T21:25:37.104Z,19.12
2023-02-14T21:28:41.395Z,18.05
2023-02-14T21:31:46.710Z,17.57
2023-02-14T21:34:57.094Z,17.62
2023-02-14T21:38:02.288Z,19.15
2023-02-14T21:41:11.192Z,18.02
2023-02-14T21:44:34.683Z,18.63
2023-02-14T21:52:18.174Z,18.73
2023-02-14T21:55:23.276Z,18.42
2023-02-14T21:58:27.024Z,17.87
2023-02-14T22:01:37.450Z,18.48
2023-02-14T22:04:44.347Z,18.00
2023-02-14T22:07:49.196Z,21.85
2023-02-14T22:10:52.830Z,21.53
2023-02-14T22:13:58.209Z,23.25
2023-02-14T22:17:01.274Z,22.50
2023-02-14T22:20:06.188Z,22.40
2023-02-14T22:23:14.069Z,24.73
2023-02-14T22:26:24.598Z,23.80
2023-02-14T22:29:29.649Z,23.85
2023-02-14T22:32:33.167Z,25.17
2023-02-14T22:35:36.347Z,24.70
2023-02-14T22:38:42.414Z,25.02
2023-02-14T22:41:47.856Z,29.33
2023-02-14T22:44:51.145Z,32.03
2023-02-14T22:47:54.430Z,27.55
2023-02-14T22:50:56.876Z,29.70
2023-02-14T22:54:02.652Z,30.08
2023-02-14T22:57:05.795Z,28.10
2023-02-14T23:00:11.801Z,32.60
2023-02-14T23:03:15.471Z,31.10
2023-02-14T23:06:18.394Z,32.15
2023-02-14T23:09:22.640Z,30.87
2023-02-14T23:12:55.094Z,31.40
2023-02-14T23:16:16.824Z,29.90
2023-02-14T23:19:44.800Z,31.33
2023-02-14T23:22:47.645Z,30.92
2023-02-14T23:25:52.396Z,30.75
2023-02-14T23:28:55.697Z,29.67
2023-02-14T23:31:59.688Z,31.27
2023-02-14T23:35:02.693Z,32.70
2023-02-14T23:38:06.144Z,31.62
2023-02-14T23:41:31.024Z,29.20
2023-02-14T23:44:35.249Z,30.20
2023-02-14T23:47:38.077Z,28.85
2023-02-14T23:50:41.648Z,29.98
2023-02-14T23:53:44.667Z,29.85
2023-02-14T23:56:48.241Z,31.60
2023-02-14T23:59:52.997Z,30.23
